Terminal Aerodrome Forecast
Issued by NWS

Home | Current Version | Previous Version | Text Only | Print | Product List | Glossary On
Versions: 1 2 3 4 5 6 7 8 9 10 11 12 13 14 15 16
000
FTUS42 KTBW 291121
TAFPGD
TAF
KPGD 291121Z 2912/3012 02007KT P6SM SKC
     FM291500 03011KT P6SM FEW250
     FM292200 03007KT P6SM SKC
     FM300400 06004KT P6SM SKC=

USA.gov is the U.S. government's official web portal to all federal, state and local government web resources and services.